Time;durP1;ratioP1;P1;durP2;ratioP2;P2;SDS_P1;SDS_P2;PMS_P1;PMS_P2;Temp;Humidity;BMP_temperature;BMP_pressure;BME280_temperature;BME280_humidity;BME280_pressure;Samples;Min_cycle;Max_cycle;Signal;HPM_P1;HPM_P2
2021/11/17 02:26:22;;;;;;;66.30;62.07;;;5.40;99.90;;;;;;6249345;22;20475;-77
2021/11/17 02:29:31;;;;;;;51.93;47.47;;;5.40;99.90;;;;;;6288656;22;20400;-77
2021/11/17 02:35:30;;;;;;;41.57;38.20;;;5.40;99.90;;;;;;6244613;22;20455;-70
2021/11/17 02:38:13;;;;;;;188.70;46.93;;;5.40;99.90;;;;;;6250948;22;20918;-70
2021/11/17 02:41:19;;;;;;;38.07;35.03;;;5.40;99.90;;;;;;6288573;22;20450;-70
2021/11/17 02:44:01;;;;;;;38.67;35.17;;;5.40;99.90;;;;;;6278162;22;20421;-70
2021/11/17 02:46:49;;;;;;;40.63;37.13;;;5.40;99.90;;;;;;6251200;22;20404;-70
2021/11/17 02:49:32;;;;;;;178.97;45.53;;;5.40;99.90;;;;;;6288470;22;20408;-70
2021/11/17 02:52:14;;;;;;;190.40;52.40;;;5.40;99.90;;;;;;6279131;22;20704;-70
2021/11/17 02:54:57;;;;;;;188.00;55.50;;;5.40;99.90;;;;;;6288610;22;20710;-70
2021/11/17 02:57:48;;;;;;;187.27;47.13;;;5.50;99.90;;;;;;6278517;22;20452;-70
2021/11/17 03:00:56;;;;;;;216.57;48.10;;;5.40;99.90;;;;;;6288930;22;20380;-70
2021/11/17 03:03:41;;;;;;;172.27;48.57;;;5.40;99.90;;;;;;6250450;22;20443;-70
2021/11/17 03:06:23;;;;;;;228.93;50.43;;;5.40;99.90;;;;;;6287787;22;20481;-70
2021/11/17 03:09:06;;;;;;;179.97;49.40;;;5.40;99.90;;;;;;6288237;22;20934;-70
2021/11/17 03:11:56;;;;;;;217.50;61.40;;;5.40;99.90;;;;;;6288644;22;20420;-70
2021/11/17 03:14:48;;;;;;;212.30;56.03;;;5.40;99.90;;;;;;6288275;22;20421;-70
2021/11/17 03:17:33;;;;;;;252.60;57.03;;;5.40;99.90;;;;;;6250960;22;20433;-70
2021/11/17 03:20:16;;;;;;;184.77;50.97;;;5.40;99.90;;;;;;6288764;22;20848;-70
2021/11/17 03:23:02;;;;;;;116.60;43.23;;;5.40;99.90;;;;;;6288688;22;20462;-70
2021/11/17 03:25:55;;;;;;;186.13;48.07;;;5.40;99.90;;;;;;6289341;22;20384;-70
2021/11/17 03:28:44;;;;;;;262.30;53.27;;;5.40;99.90;;;;;;6288285;22;20393;-70
2021/11/17 03:31:58;;;;;;;48.93;44.37;;;5.40;99.90;;;;;;6288168;22;20397;-70
2021/11/17 03:34:59;;;;;;;44.37;40.37;;;5.40;99.90;;;;;;6288347;22;20847;-70
2021/11/17 03:37:44;;;;;;;243.03;51.13;;;5.40;99.90;;;;;;6287799;22;20432;-70
2021/11/17 03:40:28;;;;;;;43.83;39.07;;;5.40;99.90;;;;;;6278706;22;20394;-70
2021/11/17 03:43:12;;;;;;;274.07;53.00;;;5.40;99.90;;;;;;6288093;22;20505;-70
2021/11/17 03:45:51;;;;;;;186.07;49.30;;;5.40;99.90;;;;;;6288037;22;20403;-70
2021/11/17 03:48:31;;;;;;;169.83;48.20;;;5.40;99.90;;;;;;6288288;22;20373;-70
2021/11/17 03:51:16;;;;;;;270.57;51.83;;;5.40;99.90;;;;;;6277664;22;20465;-70
2021/11/17 03:54:01;;;;;;;189.67;44.60;;;5.40;99.90;;;;;;6288459;22;20420;-70
2021/11/17 03:56:51;;;;;;;142.27;36.67;;;5.40;99.90;;;;;;6250487;22;20487;-70
2021/11/17 03:59:34;;;;;;;148.23;44.10;;;5.40;99.90;;;;;;6287877;22;20415;-70
2021/11/17 04:02:21;;;;;;;165.30;43.80;;;5.40;99.90;;;;;;6287893;22;20851;-69
2021/11/17 04:05:07;;;;;;;156.17;48.53;;;5.40;99.90;;;;;;6288152;22;20882;-70
2021/11/17 04:07:50;;;;;;;181.00;51.13;;;5.40;99.90;;;;;;6277396;22;20767;-70
2021/11/17 04:10:38;;;;;;;171.37;47.60;;;5.40;99.90;;;;;;6277652;22;20446;-70
2021/11/17 04:13:16;;;;;;;186.80;55.53;;;5.50;99.90;;;;;;6288031;22;20470;-70
2021/11/17 04:15:57;;;;;;;141.40;53.70;;;5.50;99.90;;;;;;6288048;22;20745;-70
2021/11/17 04:18:38;;;;;;;238.37;47.17;;;5.50;99.90;;;;;;6277713;22;20512;-70
2021/11/17 04:21:20;;;;;;;189.67;40.20;;;5.50;99.90;;;;;;6287735;22;20377;-70
2021/11/17 04:24:01;;;;;;;190.20;48.53;;;5.50;99.90;;;;;;6287680;22;20417;-70
2021/11/17 04:26:48;;;;;;;208.20;39.80;;;5.50;99.90;;;;;;6288372;22;20431;-70
2021/11/17 04:29:50;;;;;;;171.73;50.53;;;5.50;99.90;;;;;;6287845;22;20435;-70
2021/11/17 04:32:46;;;;;;;172.37;57.63;;;5.50;99.90;;;;;;6287191;22;20423;-70
2021/11/17 04:35:33;;;;;;;254.63;61.50;;;5.50;99.90;;;;;;6249858;22;20504;-71
2021/11/17 04:38:29;;;;;;;262.73;53.00;;;5.50;99.90;;;;;;6287874;22;20742;-70
2021/11/17 04:41:23;;;;;;;217.03;53.53;;;5.50;99.90;;;;;;6287456;22;20401;-70
2021/11/17 04:44:05;;;;;;;140.47;47.63;;;5.50;99.90;;;;;;6287772;22;20413;-70
2021/11/17 04:46:58;;;;;;;196.87;44.67;;;5.50;99.90;;;;;;6287817;22;20452;-70
2021/11/17 04:49:48;;;;;;;242.63;54.00;;;5.50;99.90;;;;;;6287257;22;20480;-70
2021/11/17 04:52:32;;;;;;;339.53;58.93;;;5.50;99.90;;;;;;6249922;22;20750;-70
2021/11/17 04:55:24;;;;;;;308.37;57.53;;;5.60;99.90;;;;;;6287466;22;20718;-70
2021/11/17 04:58:06;;;;;;;151.43;43.37;;;5.60;99.90;;;;;;6287350;22;20519;-70
2021/11/17 05:00:54;;;;;;;156.37;39.80;;;5.60;99.90;;;;;;6287350;22;20435;-70
2021/11/17 05:03:36;;;;;;;153.00;49.17;;;5.60;99.90;;;;;;6289015;22;20417;-70
2021/11/17 05:06:37;;;;;;;198.77;46.80;;;5.60;99.90;;;;;;6287740;22;20464;-70
2021/11/17 05:09:14;;;;;;;138.80;38.43;;;5.60;99.90;;;;;;6268081;22;20439;-70
2021/11/17 05:11:57;;;;;;;190.07;42.67;;;5.60;99.90;;;;;;6287506;22;20887;-70
2021/11/17 05:14:34;;;;;;;174.63;41.50;;;5.60;99.90;;;;;;6249570;22;20483;-70
2021/11/17 05:17:18;;;;;;;220.50;49.93;;;5.60;99.90;;;;;;6287672;22;20416;-70
2021/11/17 05:19:55;;;;;;;217.20;40.13;;;5.60;99.90;;;;;;6287427;22;20672;-70
2021/11/17 05:22:42;;;;;;;200.67;46.53;;;5.60;99.90;;;;;;6287300;22;20448;-70
2021/11/17 05:25:34;;;;;;;224.10;57.10;;;5.60;99.90;;;;;;6287100;22;20723;-70
2021/11/17 05:28:26;;;;;;;134.33;40.47;;;5.60;99.90;;;;;;6287580;22;20397;-70
2021/11/17 05:31:09;;;;;;;194.90;51.77;;;5.60;99.90;;;;;;6288066;22;20388;-70
2021/11/17 05:33:54;;;;;;;185.40;47.03;;;5.70;99.90;;;;;;6284848;22;20519;-71
2021/11/17 05:36:32;;;;;;;358.30;61.60;;;5.70;99.90;;;;;;6244478;23;20428;-70
2021/11/17 05:39:13;;;;;;;230.37;53.43;;;5.70;99.90;;;;;;6246283;23;20981;-70
2021/11/17 05:41:55;;;;;;;185.70;48.07;;;5.70;99.90;;;;;;6256480;23;20416;-70
2021/11/17 05:44:41;;;;;;;151.97;44.53;;;5.70;99.90;;;;;;6256594;22;20449;-70
2021/11/17 05:47:21;;;;;;;122.87;34.10;;;5.70;99.90;;;;;;6246354;22;20413;-70
2021/11/17 05:50:00;;;;;;;255.67;48.40;;;5.70;99.90;;;;;;6244439;23;20438;-70
2021/11/17 05:52:53;;;;;;;149.33;38.00;;;5.70;99.90;;;;;;6256493;22;20496;-70
2021/11/17 05:55:34;;;;;;;179.63;43.63;;;5.80;99.90;;;;;;6245836;23;20398;-70
2021/11/17 05:58:16;;;;;;;188.87;50.33;;;5.80;99.90;;;;;;6244568;23;20513;-70
2021/11/17 06:01:14;;;;;;;249.10;49.80;;;5.80;99.90;;;;;;6257743;23;20712;-70
2021/11/17 06:03:55;;;;;;;137.50;40.13;;;5.80;99.90;;;;;;6273488;22;20414;-70
2021/11/17 06:06:23;;;;;;;321.57;60.63;;;5.80;99.90;;;;;;6278809;23;20385;-70
2021/11/17 06:08:54;;;;;;;196.97;40.27;;;5.80;99.90;;;;;;6266867;23;20405;-70
2021/11/17 06:11:27;;;;;;;263.60;48.33;;;5.80;99.90;;;;;;6275921;22;20718;-70
2021/11/17 06:13:59;;;;;;;228.63;46.50;;;5.80;99.90;;;;;;6264972;22;20433;-70
2021/11/17 06:16:28;;;;;;;235.03;50.37;;;5.80;99.90;;;;;;6277475;23;20386;-70
2021/11/17 06:18:57;;;;;;;194.20;43.43;;;5.80;99.90;;;;;;6264480;23;20426;-70
2021/11/17 06:21:25;;;;;;;208.93;41.23;;;5.90;99.90;;;;;;6255117;22;20425;-70
2021/11/17 06:23:56;;;;;;;276.87;56.97;;;5.90;99.90;;;;;;6259340;22;20464;-70
2021/11/17 06:26:39;;;;;;;188.03;40.57;;;5.90;99.90;;;;;;6259909;22;20474;-70
2021/11/17 06:29:11;;;;;;;143.40;40.60;;;5.90;99.90;;;;;;6259630;22;20769;-70
2021/11/17 06:31:42;;;;;;;189.23;39.63;;;5.90;99.90;;;;;;6261157;23;20426;-70
2021/11/17 06:34:24;;;;;;;217.37;48.47;;;5.90;99.90;;;;;;6260333;22;20428;-70
2021/11/17 06:36:53;;;;;;;232.20;44.43;;;5.90;99.90;;;;;;6280928;22;20443;-70
2021/11/17 06:39:22;;;;;;;169.53;37.37;;;5.90;99.90;;;;;;6280123;22;20425;-70
2021/11/17 06:41:52;;;;;;;223.77;41.40;;;5.90;99.90;;;;;;6289564;22;20416;-70
2021/11/17 06:44:23;;;;;;;210.17;44.33;;;5.90;99.90;;;;;;6289306;22;20412;-69
2021/11/17 06:46:51;;;;;;;151.80;41.87;;;5.90;99.90;;;;;;6289892;22;20476;-70
2021/11/17 06:49:20;;;;;;;156.90;38.30;;;5.90;99.90;;;;;;6278911;22;20945;-70
2021/11/17 06:51:49;;;;;;;204.10;45.43;;;6.00;99.90;;;;;;6289408;22;20396;-70
2021/11/17 06:54:18;;;;;;;168.67;46.23;;;6.00;99.90;;;;;;6289303;22;20451;-68
2021/11/17 06:56:46;;;;;;;188.07;51.57;;;6.00;99.90;;;;;;6251218;22;20444;-70
2021/11/17 06:59:16;;;;;;;195.53;45.50;;;6.00;99.90;;;;;;6288521;22;20425;-70
2021/11/17 07:01:44;;;;;;;145.93;44.23;;;6.00;99.90;;;;;;6289108;22;20397;-69
2021/11/17 07:04:13;;;;;;;191.53;50.10;;;6.00;99.90;;;;;;6288508;22;20982;-69
2021/11/17 07:06:42;;;;;;;210.20;44.13;;;6.00;99.90;;;;;;6288789;22;20735;-70
2021/11/17 07:09:10;;;;;;;256.53;48.57;;;6.10;99.90;;;;;;6288525;22;20480;-70
2021/11/17 07:11:39;;;;;;;156.97;43.07;;;6.10;99.90;;;;;;6289754;22;20432;-70
2021/11/17 07:14:09;;;;;;;236.30;49.83;;;6.10;99.90;;;;;;6290012;22;20416;-70
2021/11/17 07:16:41;;;;;;;142.30;42.77;;;6.10;99.90;;;;;;6289846;22;20405;-70
2021/11/17 07:19:10;;;;;;;152.00;39.17;;;6.10;99.90;;;;;;6289597;22;20504;-70
2021/11/17 07:21:40;;;;;;;251.03;48.07;;;6.10;99.90;;;;;;6289191;22;20954;-69
2021/11/17 07:24:09;;;;;;;217.97;53.50;;;6.10;99.90;;;;;;6279091;22;20483;-70
2021/11/17 07:26:37;;;;;;;202.67;44.47;;;6.10;99.90;;;;;;6251395;22;20405;-70
2021/11/17 07:29:05;;;;;;;173.07;43.23;;;6.20;99.90;;;;;;6289686;22;20393;-70
2021/11/17 07:31:33;;;;;;;282.60;56.63;;;6.20;99.90;;;;;;6251575;22;20401;-70
2021/11/17 07:34:03;;;;;;;231.03;56.10;;;6.20;99.90;;;;;;6288070;22;20527;-70
2021/11/17 07:36:31;;;;;;;213.37;51.53;;;6.20;99.90;;;;;;6287880;22;20470;-70
2021/11/17 07:38:59;;;;;;;132.37;51.43;;;6.20;99.90;;;;;;6287875;22;20830;-70
2021/11/17 07:41:28;;;;;;;178.37;46.93;;;6.20;99.90;;;;;;6288001;22;20487;-70
2021/11/17 07:43:56;;;;;;;200.67;48.33;;;6.20;99.90;;;;;;6287888;22;20417;-70
2021/11/17 07:46:24;;;;;;;232.47;49.70;;;6.30;99.90;;;;;;6288510;22;20483;-70
2021/11/17 07:48:53;;;;;;;179.23;39.33;;;6.30;99.90;;;;;;6291120;22;20480;-70
2021/11/17 07:51:23;;;;;;;307.87;65.73;;;6.30;99.90;;;;;;6292366;22;20393;-70
2021/11/17 07:53:51;;;;;;;237.47;57.07;;;6.30;99.90;;;;;;6288687;22;20452;-70
2021/11/17 07:56:19;;;;;;;209.17;56.47;;;6.30;99.90;;;;;;6289724;22;20411;-70
2021/11/17 07:58:47;;;;;;;212.67;50.07;;;6.40;99.90;;;;;;6251672;22;20951;-70
2021/11/17 08:01:16;;;;;;;130.83;43.37;;;6.40;99.90;;;;;;6288580;22;20505;-70
2021/11/17 08:03:47;;;;;;;155.47;45.83;;;6.40;99.90;;;;;;6288176;22;20412;-70
2021/11/17 08:06:17;;;;;;;234.90;48.90;;;6.40;99.90;;;;;;6288341;22;20376;-70
2021/11/17 08:08:46;;;;;;;189.77;46.07;;;6.40;99.90;;;;;;6288193;22;20369;-70
2021/11/17 08:11:15;;;;;;;133.60;38.43;;;6.50;99.90;;;;;;6287905;22;20451;-70
2021/11/17 08:13:44;;;;;;;177.90;46.03;;;6.50;99.90;;;;;;6288048;22;20421;-70
2021/11/17 08:16:14;;;;;;;217.30;51.00;;;6.50;99.90;;;;;;6288839;22;20400;-70
2021/11/17 08:18:42;;;;;;;242.37;45.77;;;6.50;99.90;;;;;;6250718;22;20499;-70
2021/11/17 08:21:12;;;;;;;131.03;42.10;;;6.50;99.90;;;;;;6288127;22;20479;-70
2021/11/17 08:23:40;;;;;;;221.20;46.00;;;6.60;99.90;;;;;;6288231;22;20915;-70
2021/11/17 08:26:11;;;;;;;235.87;57.07;;;6.60;99.90;;;;;;6288816;22;20507;-70
2021/11/17 08:28:41;;;;;;;298.73;56.67;;;6.60;99.90;;;;;;6277762;22;20413;-70
2021/11/17 08:31:11;;;;;;;255.07;50.63;;;6.60;99.90;;;;;;6288050;22;20440;-70
2021/11/17 08:33:39;;;;;;;205.60;52.47;;;6.60;99.90;;;;;;6250201;22;20433;-71
2021/11/17 08:36:08;;;;;;;240.87;54.07;;;6.70;99.90;;;;;;6287456;22;20415;-70
2021/11/17 08:38:37;;;;;;;152.37;40.53;;;6.70;99.90;;;;;;6277048;22;20412;-70
2021/11/17 08:41:08;;;;;;;209.67;53.30;;;6.70;99.90;;;;;;6287383;22;20393;-70
2021/11/17 08:43:39;;;;;;;226.47;52.67;;;6.70;99.90;;;;;;6287516;22;20896;-70
2021/11/17 08:46:07;;;;;;;144.23;45.03;;;6.70;99.90;;;;;;6288115;22;20381;-70
2021/11/17 08:48:38;;;;;;;210.03;47.63;;;6.70;99.90;;;;;;6287545;22;20424;-70
2021/11/17 08:51:08;;;;;;;265.43;53.27;;;6.70;99.90;;;;;;6277467;22;20390;-70
2021/11/17 08:53:38;;;;;;;153.77;42.30;;;6.80;99.90;;;;;;6287588;22;20495;-70
2021/11/17 08:56:09;;;;;;;206.13;53.33;;;6.80;99.90;;;;;;6250145;22;20508;-70
2021/11/17 08:58:40;;;;;;;198.27;46.00;;;6.80;99.90;;;;;;6287855;22;20377;-70
2021/11/17 09:01:09;;;;;;;283.47;51.67;;;6.80;99.90;;;;;;6287960;22;20517;-70
2021/11/17 09:03:39;;;;;;;234.97;51.23;;;6.80;99.90;;;;;;6287324;22;20432;-70
2021/11/17 09:06:09;;;;;;;197.83;50.93;;;6.80;99.90;;;;;;6287338;22;20425;-70
2021/11/17 09:08:37;;;;;;;204.17;46.90;;;6.80;99.90;;;;;;6287292;22;20472;-70
2021/11/17 09:11:10;;;;;;;169.63;50.33;;;6.90;99.90;;;;;;6249663;22;20475;-70
2021/11/17 09:13:40;;;;;;;200.73;46.70;;;6.90;99.90;;;;;;6277123;22;20422;-70
2021/11/17 09:16:09;;;;;;;103.53;43.50;;;6.90;99.90;;;;;;6287559;22;20472;-70
2021/11/17 09:18:42;;;;;;;203.57;48.33;;;6.90;99.90;;;;;;6287718;22;20393;-70
2021/11/17 09:21:13;;;;;;;158.17;44.80;;;6.90;99.90;;;;;;6249591;22;20429;-70
2021/11/17 09:23:42;;;;;;;223.57;49.53;;;6.90;99.90;;;;;;6287272;22;20459;-70
2021/11/17 09:26:10;;;;;;;119.27;42.93;;;7.00;99.90;;;;;;6287130;22;20403;-70
2021/11/17 09:28:40;;;;;;;205.03;53.03;;;7.00;99.90;;;;;;6249543;22;20953;-70
2021/11/17 09:31:09;;;;;;;282.33;58.10;;;7.00;99.90;;;;;;6287141;22;20397;-70
2021/11/17 09:33:44;;;;;;;237.20;48.23;;;7.00;99.90;;;;;;6287416;22;20440;-70
2021/11/17 09:36:15;;;;;;;183.47;55.83;;;7.00;99.90;;;;;;6275500;22;20895;-70
2021/11/17 09:38:44;;;;;;;239.73;50.10;;;7.10;99.90;;;;;;6289727;22;20463;-70
2021/11/17 09:41:15;;;;;;;191.67;47.93;;;7.10;99.90;;;;;;6291089;22;20759;-70
2021/11/17 09:43:47;;;;;;;244.67;56.43;;;7.10;99.90;;;;;;6289740;22;20903;-70
2021/11/17 09:46:19;;;;;;;309.30;63.57;;;7.10;99.90;;;;;;6289958;22;20437;-70
2021/11/17 09:48:50;;;;;;;237.03;57.83;;;7.20;99.90;;;;;;6289450;22;20389;-71
2021/11/17 09:51:21;;;;;;;142.43;50.43;;;7.20;99.90;;;;;;6288956;22;20412;-70
2021/11/17 09:53:53;;;;;;;214.53;57.40;;;7.20;99.90;;;;;;6278628;22;20457;-70
2021/11/17 09:56:25;;;;;;;170.23;44.13;;;7.30;99.90;;;;;;6251487;22;20448;-70
2021/11/17 09:58:57;;;;;;;130.47;45.20;;;7.30;99.90;;;;;;6289327;22;20444;-70
2021/11/17 10:01:34;;;;;;;219.07;54.27;;;7.30;99.90;;;;;;6289237;22;20870;-70
2021/11/17 10:04:07;;;;;;;204.23;59.37;;;7.30;99.90;;;;;;6289387;22;20704;-70
2021/11/17 10:10:05;;;;;;;335.50;59.73;;;7.30;99.90;;;;;;6288903;22;20400;-70
2021/11/17 10:12:56;;;;;;;211.03;51.50;;;7.40;99.90;;;;;;6288685;22;20423;-71
2021/11/17 10:15:28;;;;;;;219.77;62.57;;;7.40;99.90;;;;;;6251481;22;20476;-70
2021/11/17 10:18:05;;;;;;;297.27;61.37;;;7.40;99.90;;;;;;6251459;22;20440;-70
2021/11/17 10:20:37;;;;;;;241.17;55.00;;;7.50;99.90;;;;;;6289244;22;20495;-70
2021/11/17 10:23:27;;;;;;;279.13;61.17;;;7.50;99.90;;;;;;6288949;22;20445;-70
2021/11/17 10:25:58;;;;;;;154.13;57.67;;;7.50;99.90;;;;;;6269378;22;20412;-70
2021/11/17 10:28:30;;;;;;;210.40;53.53;;;7.50;99.90;;;;;;6288909;22;20929;-70
2021/11/17 10:31:10;;;;;;;171.27;52.80;;;7.60;99.90;;;;;;6288596;22;20416;-70
2021/11/17 10:33:54;;;;;;;209.80;56.07;;;7.60;99.90;;;;;;6288536;22;20471;-71
2021/11/17 10:36:25;;;;;;;123.40;52.40;;;7.60;99.90;;;;;;6245919;23;20428;-70
2021/11/17 10:38:57;;;;;;;269.00;65.37;;;7.60;99.90;;;;;;6258400;23;20398;-70
2021/11/17 10:41:27;;;;;;;249.53;74.30;;;7.60;99.90;;;;;;6258407;22;20511;-70
2021/11/17 10:44:02;;;;;;;173.10;54.90;;;7.60;99.90;;;;;;6258063;22;20416;-70
2021/11/17 10:46:43;;;;;;;267.47;69.40;;;7.70;99.90;;;;;;6258100;22;20468;-70
2021/11/17 10:49:14;;;;;;;110.93;54.23;;;7.60;99.90;;;;;;6257780;23;20403;-70
2021/11/17 10:51:54;;;;;;;248.60;70.63;;;7.70;99.90;;;;;;6258253;23;20389;-70
2021/11/17 10:54:25;;;;;;;256.97;65.50;;;7.70;99.90;;;;;;6247396;22;20479;-70
2021/11/17 10:57:02;;;;;;;288.77;71.80;;;7.80;99.90;;;;;;6266314;23;20379;-70
2021/11/17 10:59:31;;;;;;;218.40;63.67;;;7.80;99.90;;;;;;6265381;23;20375;-70
2021/11/17 11:02:01;;;;;;;168.10;57.30;;;7.80;99.90;;;;;;6252951;23;20436;-70
2021/11/17 11:04:34;;;;;;;185.97;60.80;;;7.90;99.90;;;;;;6263787;23;20488;-70
2021/11/17 11:07:06;;;;;;;255.27;72.53;;;7.90;99.90;;;;;;6262687;22;20474;-71
2021/11/17 11:09:40;;;;;;;262.90;63.47;;;7.90;99.90;;;;;;6262797;22;20839;-70
2021/11/17 11:12:11;;;;;;;370.00;78.43;;;8.00;99.90;;;;;;6264797;22;20408;-70
2021/11/17 11:14:46;;;;;;;378.70;79.87;;;8.00;99.90;;;;;;6250920;23;20391;-70
2021/11/17 11:17:27;;;;;;;271.80;68.60;;;8.00;99.90;;;;;;6258229;22;20862;-70
2021/11/17 11:20:31;;;;;;;212.17;66.87;;;8.10;99.90;;;;;;6245824;23;20808;-70
2021/11/17 11:23:24;;;;;;;204.63;66.07;;;8.10;99.90;;;;;;6257794;22;20466;-70
2021/11/17 11:26:02;;;;;;;288.73;73.50;;;8.10;99.90;;;;;;6257688;22;20707;-70
2021/11/17 11:28:35;;;;;;;218.90;65.10;;;8.10;99.90;;;;;;6257258;23;20381;-70
2021/11/17 11:31:38;;;;;;;248.67;68.23;;;8.20;99.90;;;;;;6258060;23;20402;-70
2021/11/17 11:34:37;;;;;;;264.00;71.30;;;8.20;99.90;;;;;;6252769;22;20421;-70
2021/11/17 11:37:08;;;;;;;356.47;83.47;;;8.30;99.90;;;;;;6282209;22;20432;-71
2021/11/17 11:39:40;;;;;;;268.50;70.77;;;8.30;99.90;;;;;;6288947;22;20433;-70
2021/11/17 11:42:23;;;;;;;234.83;68.30;;;8.30;99.90;;;;;;6288645;22;20499;-70
2021/11/17 11:44:55;;;;;;;212.37;70.93;;;8.30;99.90;;;;;;6288481;22;20387;-71
2021/11/17 11:47:54;;;;;;;334.70;77.47;;;8.30;99.90;;;;;;6288438;22;20385;-71
2021/11/17 11:50:55;;;;;;;180.23;58.67;;;8.30;99.90;;;;;;6251461;22;20461;-70
2021/11/17 11:53:27;;;;;;;214.27;58.90;;;8.40;99.90;;;;;;6277941;22;20431;-71
2021/11/17 11:56:15;;;;;;;167.07;57.20;;;8.40;99.90;;;;;;6278085;22;20412;-69
2021/11/17 11:58:44;;;;;;;196.80;55.90;;;8.40;99.90;;;;;;6288144;22;20377;-70
2021/11/17 12:01:21;;;;;;;149.43;55.53;;;8.40;99.90;;;;;;6287644;22;20427;-71
2021/11/17 12:03:56;;;;;;;188.70;51.50;;;8.40;99.90;;;;;;6288242;22;20965;-70
2021/11/17 12:06:32;;;;;;;248.70;54.63;;;8.40;99.90;;;;;;6288228;22;20389;-70
2021/11/17 12:09:08;;;;;;;227.70;56.87;;;8.50;99.90;;;;;;6288290;22;20371;-70
2021/11/17 12:11:46;;;;;;;191.23;50.23;;;8.50;99.90;;;;;;6288093;22;20688;-71
2021/11/17 12:14:43;;;;;;;119.27;45.20;;;8.50;99.90;;;;;;6277737;22;20493;-71
2021/11/17 12:17:12;;;;;;;190.23;47.93;;;8.60;99.90;;;;;;6288102;22;20765;-70
2021/11/17 12:19:50;;;;;;;154.60;48.13;;;8.60;99.90;;;;;;6251305;22;20408;-71
2021/11/17 12:22:36;;;;;;;144.20;45.20;;;8.60;99.90;;;;;;6250068;22;20526;-70
2021/11/17 12:25:15;;;;;;;139.37;45.57;;;8.70;99.90;;;;;;6277578;22;20443;-70
2021/11/17 12:27:44;;;;;;;177.63;45.93;;;8.70;99.90;;;;;;6287829;22;20685;-70
2021/11/17 12:30:19;;;;;;;237.33;52.03;;;8.70;99.90;;;;;;6288695;22;20399;-70
2021/11/17 12:32:53;;;;;;;259.17;67.07;;;8.70;99.90;;;;;;6287586;22;20511;-71
2021/11/17 12:35:25;;;;;;;236.23;53.33;;;8.70;99.90;;;;;;6251934;22;20495;-70
2021/11/17 12:37:58;;;;;;;281.97;48.03;;;8.80;99.90;;;;;;6277774;22;20479;-70
2021/11/17 12:40:38;;;;;;;169.70;48.23;;;8.80;99.90;;;;;;6288018;22;20470;-70
2021/11/17 12:43:09;;;;;;;207.07;54.03;;;8.80;99.90;;;;;;6287217;22;20436;-71
2021/11/17 12:45:41;;;;;;;261.07;49.13;;;8.90;99.90;;;;;;6288472;22;20473;-70
2021/11/17 12:48:12;;;;;;;228.00;53.93;;;8.90;99.90;;;;;;6288907;22;20857;-70
2021/11/17 12:50:47;;;;;;;188.43;44.53;;;8.90;99.90;;;;;;6288585;22;20688;-71
2021/11/17 12:53:20;;;;;;;269.73;49.03;;;9.00;99.90;;;;;;6288163;22;20447;-71
2021/11/17 12:55:51;;;;;;;200.80;42.83;;;9.00;99.90;;;;;;6250414;22;20411;-70
2021/11/17 12:58:24;;;;;;;300.10;49.40;;;9.00;99.90;;;;;;6288289;22;20414;-70
2021/11/17 13:01:12;;;;;;;141.53;35.13;;;9.00;99.90;;;;;;6288053;22;20416;-70
2021/11/17 13:03:57;;;;;;;317.43;50.90;;;9.00;99.90;;;;;;6287334;22;20462;-70
2021/11/17 13:06:28;;;;;;;268.87;51.07;;;9.00;99.90;;;;;;6277246;22;20450;-70
2021/11/17 13:09:12;;;;;;;156.53;44.13;;;9.10;99.90;;;;;;6276768;22;20930;-71
2021/11/17 13:11:49;;;;;;;208.10;38.10;;;9.10;99.90;;;;;;6249679;22;20405;-70
2021/11/17 13:14:24;;;;;;;320.57;52.27;;;9.20;99.90;;;;;;6287110;22;20473;-70
2021/11/17 13:16:52;;;;;;;222.70;39.93;;;9.20;99.90;;;;;;6287547;22;20373;-70
2021/11/17 13:19:28;;;;;;;136.73;34.73;;;9.30;99.90;;;;;;6275096;22;20506;-70
2021/11/17 13:21:57;;;;;;;274.37;50.67;;;9.30;99.90;;;;;;6287330;22;20421;-71
2021/11/17 13:24:43;;;;;;;283.53;46.20;;;9.30;99.90;;;;;;6287355;22;20794;-71
2021/11/17 13:27:39;;;;;;;172.70;34.93;;;9.30;99.90;;;;;;6284372;22;20409;-71
2021/11/17 13:30:26;;;;;;;99.07;28.70;;;9.30;99.90;;;;;;6287419;22;20427;-71
2021/11/17 13:32:54;;;;;;;240.73;44.80;;;9.30;99.90;;;;;;6287305;22;20405;-71
2021/11/17 13:39:03;;;;;;;173.57;37.40;;;9.30;99.90;;;;;;6277430;22;20755;-71
2021/11/17 13:41:43;;;;;;;178.87;37.90;;;9.30;99.90;;;;;;6250018;22;20760;-71
2021/11/17 13:44:13;;;;;;;180.07;34.43;;;9.30;99.90;;;;;;6287300;22;20460;-71
2021/11/17 13:46:58;;;;;;;127.50;30.63;;;9.40;99.90;;;;;;6249719;22;20503;-71
2021/11/17 13:49:27;;;;;;;284.77;48.80;;;9.40;99.90;;;;;;6287673;22;20383;-71
2021/11/17 13:51:55;;;;;;;217.67;42.10;;;9.40;99.90;;;;;;6286353;22;20927;-71
2021/11/17 13:54:24;;;;;;;323.43;51.10;;;9.40;99.90;;;;;;6286854;22;20459;-70
2021/11/17 13:56:54;;;;;;;180.27;35.93;;;9.40;99.90;;;;;;6249539;22;20414;-71
2021/11/17 13:59:23;;;;;;;254.87;41.07;;;9.40;99.90;;;;;;6287241;22;20373;-70
2021/11/17 14:01:52;;;;;;;291.03;43.37;;;9.50;99.90;;;;;;6287263;22;20424;-71
2021/11/17 14:04:20;;;;;;;288.83;43.57;;;9.50;99.90;;;;;;6287386;22;20423;-70
2021/11/17 14:06:51;;;;;;;260.20;44.90;;;9.50;99.90;;;;;;6287536;22;20400;-71
2021/11/17 14:09:21;;;;;;;194.23;33.63;;;9.50;99.90;;;;;;6287234;22;20384;-71
2021/11/17 14:11:50;;;;;;;256.27;39.33;;;9.50;99.90;;;;;;6287598;22;20480;-71
2021/11/17 14:14:20;;;;;;;173.73;34.27;;;9.60;99.90;;;;;;6286701;22;20412;-71
2021/11/17 14:16:48;;;;;;;302.37;47.90;;;9.60;99.90;;;;;;6287497;22;20397;-71
2021/11/17 14:19:17;;;;;;;269.93;41.63;;;9.60;99.90;;;;;;6286765;22;20431;-70
2021/11/17 14:21:46;;;;;;;227.50;38.63;;;9.50;99.90;;;;;;6287201;22;20867;-71
2021/11/17 14:24:15;;;;;;;124.10;29.30;;;9.50;99.90;;;;;;6288610;22;20424;-71
2021/11/17 14:26:45;;;;;;;170.67;32.17;;;9.50;99.90;;;;;;6288841;22;20388;-71
2021/11/17 14:29:23;;;;;;;153.97;35.43;;;9.50;99.90;;;;;;6290007;22;20420;-71
2021/11/17 14:31:54;;;;;;;318.23;37.97;;;9.50;99.90;;;;;;6289704;22;20724;-71
2021/11/17 14:34:23;;;;;;;152.97;36.17;;;9.50;99.90;;;;;;6283351;22;20413;-71
2021/11/17 14:36:55;;;;;;;222.57;36.90;;;9.50;99.90;;;;;;6288779;22;20408;-71
2021/11/17 14:39:24;;;;;;;164.80;33.33;;;9.50;99.90;;;;;;6300394;22;20373;-71
2021/11/17 14:41:52;;;;;;;135.43;31.00;;;9.50;99.90;;;;;;6316599;22;20393;-70
2021/11/17 14:44:21;;;;;;;217.67;38.87;;;9.40;99.90;;;;;;6316107;22;20416;-70
2021/11/17 14:46:49;;;;;;;248.90;44.30;;;9.40;99.90;;;;;;6278414;22;20439;-71
2021/11/17 14:49:18;;;;;;;301.67;45.37;;;9.40;99.90;;;;;;6315216;22;20431;-71
2021/11/17 14:51:46;;;;;;;216.13;40.57;;;9.40;99.90;;;;;;6279870;22;20397;-70
2021/11/17 14:54:15;;;;;;;123.40;33.73;;;9.40;99.90;;;;;;6274722;22;20428;-71
2021/11/17 14:56:44;;;;;;;226.33;39.97;;;9.40;99.90;;;;;;6252086;22;20502;-70
2021/11/17 14:59:12;;;;;;;223.13;40.13;;;9.40;99.90;;;;;;6251276;22;20950;-71
2021/11/17 15:01:44;;;;;;;299.33;44.10;;;9.40;99.90;;;;;;6288396;22;20400;-71
2021/11/17 15:04:12;;;;;;;264.17;40.13;;;9.40;99.90;;;;;;6253189;22;20432;-71
2021/11/17 15:06:42;;;;;;;263.73;40.27;;;9.40;99.90;;;;;;6279625;22;20938;-71
2021/11/17 15:09:16;;;;;;;252.23;35.33;;;9.40;99.90;;;;;;6251347;22;20408;-71
2021/11/17 15:11:51;;;;;;;210.03;36.13;;;9.40;99.90;;;;;;6288823;22;20421;-71
2021/11/17 15:14:23;;;;;;;126.53;28.80;;;9.30;99.90;;;;;;6289086;22;20408;-71
2021/11/17 15:16:52;;;;;;;194.40;34.23;;;9.30;99.90;;;;;;6288268;22;20461;-71
2021/11/17 15:19:22;;;;;;;140.80;28.70;;;9.30;99.90;;;;;;6288556;22;20381;-71
2021/11/17 15:21:51;;;;;;;197.80;31.43;;;9.30;99.90;;;;;;6288126;22;20732;-71
2021/11/17 15:24:29;;;;;;;179.00;29.43;;;9.30;99.90;;;;;;6288153;22;20413;-71
2021/11/17 15:26:59;;;;;;;274.33;44.43;;;9.20;99.90;;;;;;6288003;22;20479;-71
2021/11/17 15:29:28;;;;;;;208.00;38.13;;;9.20;99.90;;;;;;6250724;22;20436;-71
2021/11/17 15:31:57;;;;;;;196.07;32.67;;;9.20;99.90;;;;;;6288114;22;20894;-71
2021/11/17 15:34:26;;;;;;;258.57;38.77;;;9.20;99.90;;;;;;6287316;22;20456;-71
2021/11/17 15:36:54;;;;;;;166.17;24.97;;;9.20;99.90;;;;;;6287885;22;20796;-71
2021/11/17 15:39:23;;;;;;;191.07;32.23;;;9.10;99.90;;;;;;6288289;22;20447;-71
2021/11/17 15:41:51;;;;;;;132.37;21.43;;;9.10;99.90;;;;;;6288281;22;20483;-71
2021/11/17 15:44:19;;;;;;;188.40;32.70;;;9.10;99.90;;;;;;6287791;22;20433;-71
2021/11/17 15:46:53;;;;;;;172.73;31.13;;;9.00;99.90;;;;;;6287933;22;20396;-71
2021/11/17 15:49:25;;;;;;;132.43;26.30;;;9.00;99.90;;;;;;6288400;22;20375;-71